createdAt,value
2022-09-15T00:00:30.842Z,16.63
2022-09-15T00:02:57.806Z,16.52
2022-09-15T00:05:24.710Z,16.51
2022-09-15T00:07:51.712Z,16.54
2022-09-15T00:10:19.090Z,16.52
2022-09-15T00:12:46.122Z,16.50
2022-09-15T00:15:15.203Z,16.43
2022-09-15T00:17:42.974Z,16.36
2022-09-15T00:20:10.859Z,16.28
2022-09-15T00:22:38.281Z,16.24
2022-09-15T00:25:06.216Z,16.18
2022-09-15T00:27:34.016Z,16.14
2022-09-15T00:30:01.294Z,16.10
2022-09-15T00:32:29.930Z,16.04
2022-09-15T00:34:56.907Z,16.04
2022-09-15T00:37:23.925Z,16.06
2022-09-15T00:39:50.943Z,16.09
2022-09-15T00:42:20.363Z,16.09
2022-09-15T00:44:49.540Z,16.06
2022-09-15T00:47:19.654Z,16.09
2022-09-15T00:49:53.919Z,16.02
2022-09-15T00:52:32.482Z,16.06
2022-09-15T00:55:16.129Z,16.01
2022-09-15T00:57:55.857Z,15.99
2022-09-15T01:00:25.890Z,16.01
2022-09-15T01:02:53.374Z,16.03
2022-09-15T01:05:23.870Z,16.02
2022-09-15T01:08:01.952Z,16.04
2022-09-15T01:10:35.291Z,15.94
2022-09-15T01:13:06.918Z,15.73
2022-09-15T01:15:48.680Z,15.67
2022-09-15T01:18:23.495Z,15.64
2022-09-15T01:21:21.283Z,15.62
2022-09-15T01:24:06.286Z,15.61
2022-09-15T01:26:46.122Z,15.65
2022-09-15T01:29:21.922Z,15.68
2022-09-15T01:32:19.086Z,15.68
2022-09-15T01:34:55.568Z,15.67
2022-09-15T01:37:29.735Z,15.62
2022-09-15T01:39:59.677Z,15.64
2022-09-15T01:42:30.489Z,15.61
2022-09-15T01:45:07.210Z,15.67
2022-09-15T01:47:35.851Z,15.69
2022-09-15T01:50:22.874Z,15.68
2022-09-15T01:52:53.098Z,15.68
2022-09-15T01:55:29.735Z,15.71
2022-09-15T01:57:58.176Z,15.75
2022-09-15T02:00:25.064Z,15.78
2022-09-15T02:03:05.174Z,15.80
2022-09-15T02:05:41.511Z,15.82
2022-09-15T02:08:25.566Z,15.80
2022-09-15T02:11:06.046Z,15.77
2022-09-15T02:13:39.309Z,15.83
2022-09-15T02:16:20.286Z,15.80
2022-09-15T02:19:04.544Z,15.75
2022-09-15T02:21:40.708Z,15.73
2022-09-15T02:24:20.070Z,15.69
2022-09-15T02:26:50.247Z,15.64
2022-09-15T02:29:20.942Z,15.63
2022-09-15T02:31:50.865Z,15.61
2022-09-15T02:34:26.154Z,15.65
2022-09-15T02:36:54.689Z,15.69
2022-09-15T02:39:26.321Z,15.68
2022-09-15T02:41:53.455Z,15.69
2022-09-15T02:44:20.285Z,15.72
2022-09-15T02:46:47.172Z,15.71
2022-09-15T02:49:14.416Z,15.67
2022-09-15T02:51:41.210Z,15.66
2022-09-15T02:54:08.442Z,15.64
2022-09-15T02:56:35.345Z,15.63
2022-09-15T02:59:02.155Z,15.66
2022-09-15T03:01:32.382Z,15.68
2022-09-15T03:03:59.400Z,15.67
2022-09-15T03:06:28.089Z,15.69
2022-09-15T03:08:57.549Z,15.68
2022-09-15T03:11:27.035Z,15.59
2022-09-15T03:13:56.398Z,15.59
2022-09-15T03:16:24.206Z,15.55
2022-09-15T03:18:52.391Z,15.58
2022-09-15T03:21:19.628Z,15.48
2022-09-15T03:23:46.553Z,15.32
2022-09-15T03:26:13.545Z,15.29
2022-09-15T03:28:40.786Z,15.31
2022-09-15T03:31:08.963Z,15.35
2022-09-15T03:33:37.045Z,15.35
2022-09-15T03:36:04.100Z,15.38
2022-09-15T03:38:31.165Z,15.36
2022-09-15T03:41:01.727Z,15.34
2022-09-15T03:43:30.484Z,15.23
2022-09-15T03:45:57.935Z,15.14
2022-09-15T03:48:25.800Z,15.00
2022-09-15T03:50:52.769Z,15.03
2022-09-15T03:53:20.358Z,15.07
2022-09-15T03:55:49.140Z,15.08
2022-09-15T03:58:17.550Z,15.08
2022-09-15T04:00:45.943Z,15.08
2022-09-15T04:03:13.512Z,15.12
2022-09-15T04:05:40.885Z,15.15
2022-09-15T04:08:12.186Z,15.13
2022-09-15T04:10:40.352Z,15.09
2022-09-15T04:13:07.577Z,15.10
2022-09-15T04:15:34.843Z,15.05
2022-09-15T04:18:01.708Z,15.02
2022-09-15T04:20:28.573Z,15.10
2022-09-15T04:22:55.431Z,15.08
2022-09-15T04:25:22.248Z,15.06
2022-09-15T04:27:49.199Z,14.93
2022-09-15T04:30:16.077Z,14.90
2022-09-15T04:32:42.905Z,14.83
2022-09-15T04:35:10.278Z,14.75
2022-09-15T04:37:37.104Z,14.69
2022-09-15T04:40:04.284Z,14.71
2022-09-15T04:42:31.655Z,14.70
2022-09-15T04:44:58.522Z,14.72
2022-09-15T04:47:25.354Z,14.71
2022-09-15T04:49:52.218Z,14.73
2022-09-15T04:52:19.242Z,14.80
2022-09-15T04:54:46.093Z,14.94
2022-09-15T04:57:13.039Z,15.00
2022-09-15T04:59:39.968Z,14.99
2022-09-15T05:02:06.919Z,15.04
2022-09-15T05:04:35.090Z,15.03
2022-09-15T05:07:02.415Z,15.14
2022-09-15T05:09:31.082Z,15.22
2022-09-15T05:11:58.046Z,15.32
2022-09-15T05:14:24.905Z,15.39
2022-09-15T05:16:51.727Z,15.47
2022-09-15T05:19:18.610Z,15.55
2022-09-15T05:21:45.537Z,15.67
2022-09-15T05:24:14.113Z,15.78
2022-09-15T05:26:41.845Z,15.86
2022-09-15T05:29:08.869Z,15.96
2022-09-15T05:31:35.913Z,16.11
2022-09-15T05:34:05.789Z,16.24
2022-09-15T05:36:32.955Z,16.42
2022-09-15T05:39:00.398Z,16.49
2022-09-15T05:41:28.608Z,16.54
2022-09-15T05:43:57.362Z,16.70
2022-09-15T05:46:26.339Z,16.82
2022-09-15T05:48:56.636Z,16.95
2022-09-15T05:51:24.339Z,17.05
2022-09-15T05:53:51.360Z,17.14
2022-09-15T05:56:18.559Z,17.17
2022-09-15T05:58:47.758Z,17.26
2022-09-15T06:01:20.322Z,17.35
2022-09-15T06:03:48.467Z,17.38
2022-09-15T06:06:16.170Z,17.48
2022-09-15T06:08:48.264Z,17.64
2022-09-15T06:11:20.593Z,17.78
2022-09-15T06:13:48.561Z,17.91
2022-09-15T06:16:21.076Z,17.86
2022-09-15T06:18:50.102Z,17.94
2022-09-15T06:21:28.457Z,18.07
2022-09-15T06:23:57.180Z,18.18
2022-09-15T06:26:24.769Z,18.23
2022-09-15T06:28:56.777Z,18.27
2022-09-15T06:31:25.430Z,18.36
2022-09-15T06:33:54.476Z,18.43
2022-09-15T06:36:24.496Z,18.53
2022-09-15T06:38:51.926Z,18.65
2022-09-15T06:41:19.181Z,18.66
2022-09-15T06:43:46.864Z,18.78
2022-09-15T06:46:18.667Z,18.82
2022-09-15T06:48:48.316Z,18.93
2022-09-15T06:51:17.514Z,19.06
2022-09-15T06:53:45.537Z,19.15
2022-09-15T06:56:21.016Z,19.29
2022-09-15T06:58:51.250Z,19.48
2022-09-15T07:01:23.840Z,19.53
2022-09-15T07:03:51.219Z,19.60
2022-09-15T07:06:18.814Z,19.64
2022-09-15T07:08:46.802Z,19.64
2022-09-15T07:11:14.621Z,19.69
2022-09-15T07:13:41.907Z,19.75
2022-09-15T07:16:10.671Z,19.81
2022-09-15T07:18:42.828Z,19.91
2022-09-15T07:21:18.563Z,19.99
2022-09-15T07:23:46.380Z,20.13
2022-09-15T07:26:14.549Z,20.29
2022-09-15T07:28:43.996Z,20.41
2022-09-15T07:31:13.999Z,20.56
2022-09-15T07:33:41.031Z,20.70
2022-09-15T07:36:09.174Z,20.80
2022-09-15T07:38:39.815Z,20.97
2022-09-15T07:41:09.300Z,21.06
2022-09-15T07:43:36.589Z,21.23
2022-09-15T07:46:04.316Z,21.31
2022-09-15T07:48:32.088Z,21.42
2022-09-15T07:51:01.977Z,21.51
2022-09-15T07:53:30.517Z,21.61
2022-09-15T07:55:58.717Z,21.78
2022-09-15T07:58:26.985Z,21.86
2022-09-15T08:00:54.067Z,21.83
2022-09-15T08:03:21.230Z,21.98
2022-09-15T08:05:48.074Z,22.14
2022-09-15T08:08:14.955Z,22.20
2022-09-15T08:10:42.044Z,22.24
2022-09-15T08:13:08.971Z,22.32
2022-09-15T08:15:37.714Z,22.47
2022-09-15T08:18:05.426Z,22.71
2022-09-15T08:20:32.755Z,22.86
2022-09-15T08:22:59.719Z,22.98
2022-09-15T08:25:26.744Z,23.16
2022-09-15T08:27:54.735Z,23.30
2022-09-15T08:30:22.060Z,23.43
2022-09-15T08:32:49.755Z,23.58
2022-09-15T08:35:17.449Z,23.80
2022-09-15T08:37:44.562Z,23.97
2022-09-15T08:40:22.435Z,24.21
2022-09-15T08:42:52.976Z,24.36
2022-09-15T08:45:30.678Z,24.54
2022-09-15T08:48:01.581Z,24.57
2022-09-15T08:50:35.710Z,24.68
2022-09-15T08:53:13.149Z,24.78
2022-09-15T08:55:45.254Z,24.71
2022-09-15T08:58:16.805Z,24.85
2022-09-15T09:00:48.761Z,25.10
2022-09-15T09:03:24.303Z,25.19
2022-09-15T09:06:12.026Z,25.11
2022-09-15T09:09:25.969Z,25.24
2022-09-15T09:12:03.396Z,25.41
2022-09-15T09:14:42.045Z,25.58
2022-09-15T09:17:31.046Z,25.80
2022-09-15T09:20:03.876Z,26.13
2022-09-15T09:22:43.051Z,26.38
2022-09-15T09:25:27.930Z,26.55
2022-09-15T09:28:06.776Z,26.77
2022-09-15T09:30:48.830Z,26.75
2022-09-15T09:33:24.782Z,26.81
2022-09-15T09:35:53.189Z,26.91
2022-09-15T09:38:29.121Z,27.01
2022-09-15T09:40:59.965Z,27.11
2022-09-15T09:43:31.211Z,27.25
2022-09-15T09:45:58.258Z,27.32
2022-09-15T09:48:27.792Z,27.52
2022-09-15T09:50:55.452Z,27.61
2022-09-15T09:53:33.408Z,27.71
2022-09-15T09:56:12.591Z,27.90
2022-09-15T09:58:39.535Z,27.99
2022-09-15T10:01:15.302Z,27.81
2022-09-15T10:03:43.509Z,27.78
2022-09-15T10:06:18.831Z,27.96
2022-09-15T10:08:56.535Z,28.15
2022-09-15T10:11:40.824Z,28.37
2022-09-15T10:14:21.226Z,28.59
2022-09-15T10:17:11.056Z,28.82
2022-09-15T10:19:45.163Z,28.93
2022-09-15T10:22:33.194Z,29.21
2022-09-15T10:25:02.242Z,29.42
2022-09-15T10:27:35.143Z,29.62
2022-09-15T10:30:14.707Z,29.98
2022-09-15T10:32:42.930Z,30.14
2022-09-15T10:35:11.644Z,30.37
2022-09-15T10:37:51.167Z,30.53
2022-09-15T10:40:44.904Z,30.76
2022-09-15T10:43:49.207Z,31.24
2022-09-15T10:46:24.094Z,31.55
2022-09-15T10:49:00.090Z,31.47
2022-09-15T10:51:55.038Z,31.51
2022-09-15T10:55:09.203Z,31.46
2022-09-15T10:58:06.499Z,31.75
2022-09-15T11:00:45.974Z,31.76
2022-09-15T11:03:31.092Z,31.79
2022-09-15T11:06:25.951Z,31.46
2022-09-15T11:09:04.919Z,31.11
2022-09-15T11:11:39.489Z,30.80
2022-09-15T11:14:17.526Z,30.61
2022-09-15T11:16:44.898Z,30.47
2022-09-15T11:19:26.626Z,30.32
2022-09-15T11:22:02.055Z,30.27
2022-09-15T11:24:50.906Z,30.32
2022-09-15T11:27:26.943Z,30.42
2022-09-15T11:29:53.883Z,30.59
2022-09-15T11:32:45.093Z,30.83
2022-09-15T11:35:37.480Z,31.07
2022-09-15T11:38:29.304Z,31.39
2022-09-15T11:41:17.310Z,31.39
2022-09-15T11:44:07.565Z,31.47
2022-09-15T11:46:57.642Z,31.59
2022-09-15T11:49:31.537Z,31.68
2022-09-15T11:52:46.172Z,31.90
2022-09-15T11:55:39.663Z,31.99
2022-09-15T11:58:09.990Z,32.06
2022-09-15T12:00:48.846Z,32.10
2022-09-15T12:03:27.411Z,31.98
2022-09-15T12:06:03.617Z,31.90
2022-09-15T12:08:40.289Z,31.77
2022-09-15T12:11:19.878Z,31.60
2022-09-15T12:13:47.278Z,31.67
2022-09-15T12:16:16.303Z,31.60
2022-09-15T12:18:47.515Z,31.76
2022-09-15T12:21:36.046Z,32.00
2022-09-15T12:24:10.037Z,32.01
2022-09-15T12:26:46.867Z,31.93
2022-09-15T12:29:22.769Z,32.06
2022-09-15T12:32:29.937Z,32.18
2022-09-15T12:35:07.939Z,32.16
2022-09-15T12:37:43.221Z,32.14
2022-09-15T12:40:34.715Z,32.29
2022-09-15T12:43:19.870Z,32.42
2022-09-15T12:45:59.908Z,32.30
2022-09-15T12:48:35.874Z,32.52
2022-09-15T12:51:05.972Z,32.69
2022-09-15T12:53:37.990Z,32.94
2022-09-15T12:56:10.541Z,32.86
2022-09-15T12:58:49.495Z,33.00
2022-09-15T13:01:19.511Z,32.98
2022-09-15T13:03:46.692Z,33.11
2022-09-15T13:06:26.805Z,33.03
2022-09-15T13:09:01.322Z,33.02
2022-09-15T13:11:37.520Z,32.96
2022-09-15T13:14:04.590Z,32.87
2022-09-15T13:16:33.876Z,32.69
2022-09-15T13:19:29.566Z,32.72
2022-09-15T13:22:11.640Z,33.04
2022-09-15T13:25:15.720Z,33.34
2022-09-15T13:27:44.024Z,33.41
2022-09-15T13:30:26.118Z,33.27
2022-09-15T13:32:59.124Z,33.28
2022-09-15T13:35:51.961Z,33.18
2022-09-15T13:38:29.265Z,33.07
2022-09-15T13:40:58.570Z,33.15
2022-09-15T13:43:56.516Z,33.25
2022-09-15T13:46:41.679Z,33.28
2022-09-15T13:49:27.856Z,33.12
2022-09-15T13:52:08.341Z,33.06
2022-09-15T13:54:35.435Z,33.10
2022-09-15T13:57:02.847Z,33.03
2022-09-15T13:59:32.825Z,32.91
2022-09-15T14:02:00.959Z,32.88
2022-09-15T14:04:32.208Z,33.09
2022-09-15T14:07:01.740Z,33.10
2022-09-15T14:09:34.866Z,32.98
2022-09-15T14:12:07.681Z,33.08
2022-09-15T14:14:42.839Z,33.24
2022-09-15T14:17:30.343Z,33.18
2022-09-15T14:19:59.914Z,33.19
2022-09-15T14:22:31.588Z,33.28
2022-09-15T14:25:00.534Z,33.34
2022-09-15T14:27:30.189Z,33.38
2022-09-15T14:30:01.361Z,33.40
2022-09-15T14:32:31.695Z,33.36
2022-09-15T14:35:00.987Z,33.30
2022-09-15T14:37:32.250Z,33.41
2022-09-15T14:40:02.198Z,33.19
2022-09-15T14:42:41.573Z,33.20
2022-09-15T14:48:02.006Z,33.21
2022-09-15T14:50:33.202Z,33.05
2022-09-15T14:53:20.488Z,33.07
2022-09-15T14:56:07.072Z,32.90
2022-09-15T14:58:42.664Z,32.81
2022-09-15T15:01:17.410Z,32.80
2022-09-15T15:04:01.613Z,33.00
2022-09-15T15:06:41.815Z,33.18
2022-09-15T15:09:14.682Z,33.32
2022-09-15T15:11:42.268Z,33.27
2022-09-15T15:14:12.154Z,33.04
2022-09-15T15:16:52.416Z,32.86
2022-09-15T15:19:32.042Z,32.55
2022-09-15T15:22:20.135Z,32.25
2022-09-15T15:24:52.711Z,31.77
2022-09-15T15:27:34.908Z,31.51
2022-09-15T15:30:33.159Z,31.17
2022-09-15T15:33:04.673Z,30.90
2022-09-15T15:35:33.225Z,30.83
2022-09-15T15:38:08.095Z,30.82
2022-09-15T15:40:37.606Z,30.63
2022-09-15T15:43:08.062Z,30.52
2022-09-15T15:45:36.426Z,30.45
2022-09-15T15:48:04.528Z,30.36
2022-09-15T15:50:32.836Z,30.32
2022-09-15T15:53:00.924Z,30.18
2022-09-15T15:55:39.141Z,30.04
2022-09-15T15:58:06.782Z,29.89
2022-09-15T16:00:45.744Z,29.77
2022-09-15T16:03:13.963Z,29.68
2022-09-15T16:05:47.187Z,29.55
2022-09-15T16:08:27.269Z,29.44
2022-09-15T16:10:55.494Z,29.34
2022-09-15T16:13:23.809Z,29.19
2022-09-15T16:15:51.105Z,29.17
2022-09-15T16:18:18.215Z,29.11
2022-09-15T16:20:45.256Z,29.03
2022-09-15T16:23:15.316Z,28.98
2022-09-15T16:25:49.908Z,28.88
2022-09-15T16:28:17.578Z,28.82
2022-09-15T16:30:44.961Z,28.68
2022-09-15T16:33:16.290Z,28.49
2022-09-15T16:35:51.919Z,28.44
2022-09-15T16:38:20.359Z,28.28
2022-09-15T16:40:51.357Z,28.13
2022-09-15T16:43:23.715Z,28.11
2022-09-15T16:45:51.655Z,28.01
2022-09-15T16:48:19.182Z,27.90
2022-09-15T16:51:02.447Z,27.82
2022-09-15T16:53:34.115Z,27.76
2022-09-15T16:56:01.174Z,27.65
2022-09-15T16:58:28.615Z,27.53
2022-09-15T17:00:56.801Z,27.43
2022-09-15T17:03:25.729Z,27.36
2022-09-15T17:05:57.868Z,27.24
2022-09-15T17:08:29.570Z,27.19
2022-09-15T17:10:58.422Z,27.10
2022-09-15T17:13:29.532Z,26.91
2022-09-15T17:15:58.358Z,26.87
2022-09-15T17:18:25.996Z,26.83
2022-09-15T17:20:53.238Z,26.75
2022-09-15T17:23:24.222Z,26.72
2022-09-15T17:25:53.551Z,26.64
2022-09-15T17:28:23.453Z,26.47
2022-09-15T17:30:53.349Z,26.37
2022-09-15T17:33:21.199Z,26.26
2022-09-15T17:35:49.353Z,26.20
2022-09-15T17:38:20.262Z,26.10
2022-09-15T17:40:48.581Z,26.06
2022-09-15T17:43:20.977Z,25.99
2022-09-15T17:45:49.184Z,25.82
2022-09-15T17:48:16.475Z,25.77
2022-09-15T17:50:45.340Z,25.72
2022-09-15T17:53:15.148Z,25.63
2022-09-15T17:55:45.947Z,25.56
2022-09-15T17:58:13.189Z,25.49
2022-09-15T18:00:42.649Z,25.43
2022-09-15T18:03:35.130Z,25.37
2022-09-15T18:06:05.370Z,25.31
2022-09-15T18:08:36.346Z,25.28
2022-09-15T18:11:05.662Z,25.23
2022-09-15T18:13:33.678Z,25.10
2022-09-15T18:16:10.384Z,25.02
2022-09-15T18:18:38.153Z,24.96
2022-09-15T18:21:09.870Z,24.89
2022-09-15T18:23:37.683Z,24.77
2022-09-15T18:26:04.610Z,24.65
2022-09-15T18:28:31.513Z,24.49
2022-09-15T18:30:58.922Z,24.41
2022-09-15T18:33:26.264Z,24.38
2022-09-15T18:35:55.623Z,24.33
2022-09-15T18:38:23.065Z,24.22
2022-09-15T18:40:53.563Z,24.23
2022-09-15T18:43:22.087Z,24.21
2022-09-15T18:45:49.819Z,24.13
2022-09-15T18:48:17.027Z,24.05
2022-09-15T18:50:45.940Z,24.05
2022-09-15T18:53:13.419Z,24.01
2022-09-15T18:55:42.083Z,23.98
2022-09-15T18:58:09.157Z,23.98
2022-09-15T19:00:36.144Z,23.87
2022-09-15T19:03:05.672Z,23.75
2022-09-15T19:05:33.152Z,23.72
2022-09-15T19:08:00.641Z,23.65
2022-09-15T19:10:27.592Z,23.59
2022-09-15T19:12:54.735Z,23.53
2022-09-15T19:15:25.052Z,23.43
2022-09-15T19:17:52.002Z,23.32
2022-09-15T19:20:19.161Z,23.18
2022-09-15T19:22:46.519Z,23.15
2022-09-15T19:25:14.001Z,23.14
2022-09-15T19:27:41.473Z,23.09
2022-09-15T19:30:10.241Z,23.10
2022-09-15T19:32:38.458Z,23.07
2022-09-15T19:35:06.398Z,23.08
2022-09-15T19:37:37.546Z,23.20
2022-09-15T19:40:10.105Z,23.32
2022-09-15T19:42:38.840Z,23.53
2022-09-15T19:45:06.867Z,23.63
2022-09-15T19:47:34.336Z,23.68
2022-09-15T19:50:01.382Z,23.71
2022-09-15T19:52:28.587Z,23.76
2022-09-15T19:54:55.479Z,23.83
2022-09-15T19:57:22.739Z,23.82
2022-09-15T19:59:50.174Z,23.88
2022-09-15T20:02:17.754Z,23.91
2022-09-15T20:04:44.955Z,23.92
2022-09-15T20:07:12.764Z,23.92
2022-09-15T20:09:39.620Z,23.93
2022-09-15T20:12:06.820Z,23.90
2022-09-15T20:14:33.840Z,23.86
2022-09-15T20:17:01.430Z,23.83
2022-09-15T20:19:29.494Z,23.79
2022-09-15T20:21:56.506Z,23.60
2022-09-15T20:24:24.345Z,23.43
2022-09-15T20:26:51.764Z,23.35
2022-09-15T20:29:19.303Z,23.28
2022-09-15T20:31:46.589Z,23.22
2022-09-15T20:34:13.654Z,23.10
2022-09-15T20:36:40.850Z,22.98
2022-09-15T20:39:13.191Z,22.89
2022-09-15T20:41:41.712Z,22.78
2022-09-15T20:44:12.026Z,22.69
2022-09-15T20:46:39.073Z,22.61
2022-09-15T20:49:06.929Z,22.42
2022-09-15T20:51:34.046Z,22.56
2022-09-15T20:54:03.834Z,22.48
2022-09-15T20:56:32.386Z,22.48
2022-09-15T20:59:00.124Z,22.44
2022-09-15T21:01:35.390Z,22.40
2022-09-15T21:04:02.579Z,22.33
2022-09-15T21:06:29.821Z,22.33
2022-09-15T21:08:57.864Z,22.27
2022-09-15T21:11:30.225Z,22.28
2022-09-15T21:13:57.584Z,22.27
2022-09-15T21:16:27.613Z,22.24
2022-09-15T21:18:56.450Z,22.23
2022-09-15T21:21:24.353Z,22.23
2022-09-15T21:23:56.829Z,22.19
2022-09-15T21:26:31.695Z,22.16
2022-09-15T21:28:58.625Z,22.05
2022-09-15T21:31:28.224Z,22.03
2022-09-15T21:33:56.810Z,21.99
2022-09-15T21:36:26.370Z,21.99
2022-09-15T21:38:55.162Z,21.97
2022-09-15T21:41:24.282Z,21.96
2022-09-15T21:43:55.738Z,21.95
2022-09-15T21:46:28.841Z,21.92
2022-09-15T21:48:57.776Z,21.89
2022-09-15T21:51:26.577Z,21.89
2022-09-15T21:53:54.378Z,21.87
2022-09-15T21:56:22.069Z,21.89
2022-09-15T21:58:49.203Z,21.91
2022-09-15T22:01:25.879Z,21.86
2022-09-15T22:03:58.842Z,21.89
2022-09-15T22:06:32.146Z,21.88
2022-09-15T22:09:05.773Z,21.88
2022-09-15T22:11:33.153Z,21.86
2022-09-15T22:14:03.057Z,21.81
2022-09-15T22:16:30.447Z,21.77
2022-09-15T22:18:57.693Z,21.67
2022-09-15T22:21:27.509Z,21.64
2022-09-15T22:23:56.781Z,21.63
2022-09-15T22:26:32.539Z,21.58
2022-09-15T22:29:00.306Z,21.50
2022-09-15T22:31:28.645Z,21.50
2022-09-15T22:33:55.686Z,21.50
2022-09-15T22:36:28.913Z,21.47
2022-09-15T22:39:03.020Z,21.41
2022-09-15T22:41:31.419Z,21.26
2022-09-15T22:43:58.384Z,21.20
2022-09-15T22:46:25.476Z,21.16
2022-09-15T22:48:52.344Z,21.07
2022-09-15T22:51:19.283Z,21.05
2022-09-15T22:53:46.188Z,20.99
2022-09-15T22:56:14.747Z,21.03
2022-09-15T22:58:46.695Z,21.03
2022-09-15T23:01:17.003Z,21.04
2022-09-15T23:03:47.635Z,21.03
2022-09-15T23:06:14.808Z,20.97
2022-09-15T23:08:41.775Z,20.87
2022-09-15T23:11:13.907Z,20.78
2022-09-15T23:13:41.667Z,20.66
2022-09-15T23:16:09.308Z,20.68
2022-09-15T23:18:36.811Z,20.68
2022-09-15T23:21:09.104Z,20.67
2022-09-15T23:23:38.409Z,20.67
2022-09-15T23:26:10.275Z,20.65
2022-09-15T23:28:39.219Z,20.65
2022-09-15T23:31:06.952Z,20.59
2022-09-15T23:33:34.027Z,20.57
2022-09-15T23:36:03.706Z,20.58
2022-09-15T23:38:34.673Z,20.55
2022-09-15T23:41:01.932Z,20.52
2022-09-15T23:43:28.730Z,20.49
2022-09-15T23:45:55.567Z,20.42
2022-09-15T23:48:23.503Z,20.34
2022-09-15T23:50:50.629Z,20.28
2022-09-15T23:53:18.304Z,20.26
2022-09-15T23:55:46.750Z,20.22
2022-09-15T23:58:13.745Z,20.13
